createdAt,value
2019-06-01T00:02:00.477Z,16.20
2019-06-01T00:04:31.192Z,16.35
2019-06-01T00:07:01.432Z,16.10
2019-06-01T00:09:32.740Z,15.58
2019-06-01T00:12:02.961Z,15.13
2019-06-01T00:14:33.615Z,15.60
2019-06-01T00:17:06.598Z,15.38
2019-06-01T00:19:37.582Z,15.53
2019-06-01T00:22:07.985Z,15.48
2019-06-01T00:24:38.472Z,16.12
2019-06-01T00:27:08.971Z,15.35
2019-06-01T00:29:40.642Z,15.15
2019-06-01T00:32:11.396Z,15.10
2019-06-01T00:34:41.864Z,16.00
2019-06-01T00:37:12.153Z,17.20
2019-06-01T00:39:43.701Z,16.27
2019-06-01T00:42:14.479Z,17.48
2019-06-01T00:44:44.782Z,16.25
2019-06-01T00:47:15.024Z,15.50
2019-06-01T00:49:45.263Z,15.70
2019-06-01T00:52:15.502Z,18.17
2019-06-01T00:54:45.727Z,17.65
2019-06-01T00:57:15.975Z,17.75
2019-06-01T00:59:46.192Z,17.42
2019-06-01T01:02:16.471Z,17.95
2019-06-01T01:04:48.307Z,17.17
2019-06-01T01:07:19.050Z,17.50
2019-06-01T01:09:50.665Z,18.12
2019-06-01T01:12:21.310Z,18.00
2019-06-01T01:14:51.531Z,18.32
2019-06-01T01:17:21.784Z,18.52
2019-06-01T01:19:52.038Z,19.77
2019-06-01T01:22:22.266Z,18.87
2019-06-01T01:24:54.533Z,18.67
2019-06-01T01:27:25.121Z,18.30
2019-06-01T01:29:55.368Z,18.52
2019-06-01T01:32:25.607Z,20.40
2019-06-01T01:34:55.828Z,20.57
2019-06-01T01:37:26.077Z,19.73
2019-06-01T01:39:56.352Z,18.73
2019-06-01T01:42:26.521Z,18.55
2019-06-01T01:44:56.770Z,19.52
2019-06-01T01:47:28.421Z,19.92
2019-06-01T01:49:58.717Z,18.23
2019-06-01T01:52:28.961Z,18.27
2019-06-01T01:54:59.186Z,19.92
2019-06-01T01:57:29.795Z,18.92
2019-06-01T02:00:01.725Z,20.23
2019-06-01T02:02:34.446Z,21.30
2019-06-01T02:05:10.093Z,19.87
2019-06-01T02:07:40.446Z,20.23
2019-06-01T02:10:13.104Z,19.48
2019-06-01T02:12:43.698Z,20.25
2019-06-01T02:15:14.461Z,20.65
2019-06-01T02:17:44.764Z,19.07
2019-06-01T02:20:15.053Z,18.77
2019-06-01T02:22:45.804Z,20.02
2019-06-01T02:25:16.289Z,19.23
2019-06-01T02:27:46.489Z,19.00
2019-06-01T02:30:17.588Z,20.52
2019-06-01T02:32:49.259Z,19.48
2019-06-01T02:35:19.922Z,19.37
2019-06-01T02:37:50.332Z,19.48
2019-06-01T02:40:21.664Z,18.00
2019-06-01T02:42:52.370Z,18.70
2019-06-01T02:45:25.279Z,19.48
2019-06-01T02:47:59.544Z,21.62
2019-06-01T02:50:30.045Z,21.82
2019-06-01T02:53:01.635Z,25.10
2019-06-01T02:55:32.230Z,28.15
2019-06-01T02:58:04.272Z,30.20
2019-06-01T03:00:48.171Z,30.32
2019-06-01T03:03:19.047Z,31.02
2019-06-01T03:05:51.004Z,32.95
2019-06-01T03:08:23.265Z,37.88
2019-06-01T03:10:55.785Z,37.17
2019-06-01T03:13:28.550Z,33.53
2019-06-01T03:16:03.442Z,32.40
2019-06-01T03:18:39.813Z,30.30
2019-06-01T03:21:12.800Z,31.90
2019-06-01T03:23:47.010Z,30.05
2019-06-01T03:26:20.129Z,31.57
2019-06-01T03:28:53.009Z,29.87
2019-06-01T03:31:23.372Z,29.45
2019-06-01T03:33:53.670Z,29.57
2019-06-01T03:36:23.917Z,29.57
2019-06-01T03:38:54.386Z,27.15
2019-06-01T03:41:24.646Z,26.15
2019-06-01T03:43:54.845Z,26.45
2019-06-01T03:46:25.087Z,26.35
2019-06-01T03:48:55.357Z,24.67
2019-06-01T03:51:25.637Z,24.43
2019-06-01T03:53:55.995Z,23.47
2019-06-01T03:56:26.387Z,22.45
2019-06-01T03:58:56.626Z,21.73
2019-06-01T04:01:26.896Z,23.40
2019-06-01T04:03:57.630Z,21.73
2019-06-01T04:06:27.966Z,20.65
2019-06-01T04:08:58.227Z,19.90
2019-06-01T04:11:28.482Z,19.52
2019-06-01T04:13:58.717Z,19.75
2019-06-01T04:16:28.960Z,19.42
2019-06-01T04:18:59.180Z,18.82
2019-06-01T04:21:29.434Z,18.48
2019-06-01T04:24:00.073Z,19.82
2019-06-01T04:26:30.436Z,18.52
2019-06-01T04:29:02.177Z,18.73
2019-06-01T04:31:33.032Z,18.07
2019-06-01T04:34:04.531Z,18.70
2019-06-01T04:36:34.891Z,18.70
2019-06-01T04:39:07.690Z,18.12
2019-06-01T04:41:38.286Z,17.12
2019-06-01T04:44:09.924Z,17.62
2019-06-01T04:46:40.307Z,17.62
2019-06-01T04:49:10.901Z,16.97
2019-06-01T04:51:41.202Z,14.90
2019-06-01T04:54:14.461Z,16.82
2019-06-01T04:56:43.958Z,15.43
2019-06-01T04:59:15.319Z,15.18
2019-06-01T05:01:46.046Z,15.32
2019-06-01T05:04:16.679Z,14.95
2019-06-01T05:06:47.267Z,14.05
2019-06-01T05:09:18.041Z,14.43
2019-06-01T05:11:49.226Z,12.43
2019-06-01T05:14:19.531Z,13.43
2019-06-01T05:16:49.773Z,12.90
2019-06-01T05:19:20.364Z,11.30
2019-06-01T05:21:50.588Z,10.78
2019-06-01T05:24:20.847Z,10.05
2019-06-01T05:26:51.521Z,9.43
2019-06-01T05:29:21.948Z,8.73
2019-06-01T05:31:52.542Z,8.58
2019-06-01T05:34:22.839Z,7.72
2019-06-01T05:36:53.103Z,7.83
2019-06-01T05:39:23.676Z,7.25
2019-06-01T05:41:55.521Z,6.83
2019-06-01T05:44:26.906Z,6.67
2019-06-01T05:46:57.505Z,6.85
2019-06-01T05:49:28.428Z,6.60
2019-06-01T05:51:59.104Z,6.47
2019-06-01T05:54:29.396Z,6.30
2019-06-01T05:56:59.629Z,6.25
2019-06-01T05:59:30.186Z,6.12
2019-06-01T06:02:00.857Z,6.72
2019-06-01T06:04:31.524Z,6.28
2019-06-01T06:07:01.840Z,6.50
2019-06-01T06:09:32.057Z,7.45
2019-06-01T06:12:02.902Z,8.00
2019-06-01T06:14:33.526Z,7.15
2019-06-01T06:17:04.260Z,7.12
2019-06-01T06:19:34.916Z,6.87
2019-06-01T06:22:05.219Z,7.10
2019-06-01T06:24:35.437Z,7.10
2019-06-01T06:27:05.772Z,6.92
2019-06-01T06:29:35.967Z,7.37
2019-06-01T06:32:09.244Z,7.00
2019-06-01T06:34:39.123Z,7.00
2019-06-01T06:37:09.680Z,6.65
2019-06-01T06:39:39.911Z,6.37
2019-06-01T06:42:10.498Z,6.50
2019-06-01T06:44:41.174Z,7.03
2019-06-01T06:47:11.994Z,6.22
2019-06-01T06:49:42.296Z,6.15
2019-06-01T06:52:12.542Z,6.92
2019-06-01T06:54:42.760Z,6.30
2019-06-01T06:57:13.009Z,5.60
2019-06-01T06:59:43.247Z,5.17
2019-06-01T07:02:16.721Z,5.05
2019-06-01T07:04:47.847Z,4.70
2019-06-01T07:07:19.511Z,4.53
2019-06-01T07:09:50.615Z,4.55
2019-06-01T07:12:21.303Z,4.90
2019-06-01T07:14:52.111Z,4.90
2019-06-01T07:17:23.521Z,4.45
2019-06-01T07:19:54.052Z,4.92
2019-06-01T07:22:24.313Z,4.55
2019-06-01T07:24:54.941Z,5.05
2019-06-01T07:27:26.139Z,5.17
2019-06-01T07:29:56.896Z,5.53
2019-06-01T07:32:28.606Z,4.62
2019-06-01T07:35:01.241Z,4.85
2019-06-01T07:37:32.728Z,4.70
2019-06-01T07:40:07.328Z,4.87
2019-06-01T07:42:37.579Z,5.08
2019-06-01T07:45:08.453Z,4.75
2019-06-01T07:47:38.707Z,5.90
2019-06-01T07:50:09.787Z,4.85
2019-06-01T07:52:40.398Z,4.90
2019-06-01T07:55:14.414Z,5.37
2019-06-01T07:57:44.283Z,5.62
2019-06-01T08:13:16.297Z,4.85
2019-06-01T08:15:46.914Z,4.50
2019-06-01T08:18:17.640Z,4.30
2019-06-01T08:20:47.988Z,4.50
2019-06-01T08:23:18.630Z,4.45
2019-06-01T08:25:48.943Z,4.90
2019-06-01T08:28:19.235Z,4.75
2019-06-01T08:30:49.475Z,4.58
2019-06-01T08:33:20.181Z,4.05
2019-06-01T08:35:50.610Z,4.60
2019-06-01T08:38:20.878Z,4.08
2019-06-01T08:40:54.346Z,4.45
2019-06-01T08:43:25.513Z,5.00
2019-06-01T08:45:57.092Z,5.00
2019-06-01T08:48:27.718Z,4.80
2019-06-01T08:50:58.133Z,4.70
2019-06-01T08:53:29.976Z,4.47
2019-06-01T08:56:01.062Z,4.80
2019-06-01T08:58:32.491Z,4.80
2019-06-01T09:01:03.174Z,4.28
2019-06-01T09:03:36.565Z,4.35
2019-06-01T09:06:06.422Z,4.73
2019-06-01T09:08:37.203Z,4.95
2019-06-01T09:11:07.474Z,3.95
2019-06-01T09:13:37.789Z,3.95
2019-06-01T09:16:09.943Z,4.00
2019-06-01T09:18:40.558Z,3.95
2019-06-01T09:21:11.133Z,3.75
2019-06-01T09:23:41.792Z,4.00
2019-06-01T09:26:12.683Z,3.90
2019-06-01T09:28:42.987Z,4.42
2019-06-01T09:31:13.687Z,4.65
2019-06-01T09:33:44.365Z,4.92
2019-06-01T09:36:15.054Z,4.00
2019-06-01T09:38:45.485Z,4.03
2019-06-01T09:41:16.127Z,3.70
2019-06-01T09:43:46.503Z,3.85
2019-06-01T09:46:17.269Z,4.22
2019-06-01T09:48:50.556Z,4.30
2019-06-01T09:51:21.301Z,3.75
2019-06-01T09:53:51.689Z,4.45
2019-06-01T10:09:09.719Z,4.10
2019-06-01T10:11:39.988Z,4.35
2019-06-01T10:14:10.633Z,4.15
2019-06-01T10:16:43.019Z,4.65
2019-06-01T10:19:13.667Z,4.72
2019-06-01T10:21:44.006Z,4.37
2019-06-01T10:24:14.733Z,4.28
2019-06-01T10:26:45.038Z,4.62
2019-06-01T10:29:15.738Z,4.33
2019-06-01T10:31:46.427Z,5.42
2019-06-01T10:34:17.172Z,4.60
2019-06-01T10:36:47.820Z,4.37
2019-06-01T10:39:19.716Z,4.50
2019-06-01T10:41:50.246Z,4.62
2019-06-01T10:44:20.534Z,4.80
2019-06-01T10:46:52.254Z,4.70
2019-06-01T10:49:22.851Z,4.60
2019-06-01T10:51:53.441Z,5.20
2019-06-01T10:54:23.734Z,5.70
2019-06-01T10:56:54.315Z,4.50
2019-06-01T10:59:24.886Z,4.62
2019-06-01T11:01:55.113Z,4.70
2019-06-01T11:04:27.098Z,4.62
2019-06-01T11:06:57.735Z,4.72
2019-06-01T11:09:28.619Z,4.80
2019-06-01T11:11:59.431Z,4.90
2019-06-01T11:14:30.279Z,4.92
2019-06-01T11:17:01.133Z,4.72
2019-06-01T11:19:31.474Z,4.70
2019-06-01T11:22:02.077Z,4.78
2019-06-01T11:24:33.270Z,4.28
2019-06-01T11:27:04.269Z,5.20
2019-06-01T11:29:41.144Z,4.60
2019-06-01T11:32:07.387Z,4.55
2019-06-01T11:34:38.460Z,4.70
2019-06-01T11:37:09.258Z,4.72
2019-06-01T11:39:40.561Z,4.65
2019-06-01T11:42:12.048Z,4.85
2019-06-01T11:44:42.817Z,4.67
2019-06-01T11:47:14.711Z,4.05
2019-06-01T11:49:45.186Z,4.78
2019-06-01T11:52:15.414Z,4.87
2019-06-01T11:54:45.757Z,4.17
2019-06-01T11:57:15.987Z,4.20
2019-06-01T11:59:47.684Z,4.55
2019-06-01T12:02:17.973Z,4.65
2019-06-01T12:04:48.258Z,4.60
2019-06-01T12:07:18.661Z,5.17
2019-06-01T12:09:49.138Z,5.17
2019-06-01T12:12:19.754Z,4.50
2019-06-01T12:14:51.503Z,4.47
2019-06-01T12:17:21.814Z,4.28
2019-06-01T12:19:52.430Z,4.00
2019-06-01T12:22:23.140Z,4.00
2019-06-01T12:24:53.527Z,3.62
2019-06-01T12:27:23.748Z,4.10
2019-06-01T12:29:54.072Z,3.77
2019-06-01T12:32:24.281Z,4.05
2019-06-01T12:34:56.096Z,3.90
2019-06-01T12:37:45.638Z,3.60
2019-06-01T12:39:58.866Z,4.08
2019-06-01T12:42:29.254Z,4.15
2019-06-01T12:44:59.471Z,3.70
2019-06-01T12:47:30.063Z,3.55
2019-06-01T12:50:00.704Z,3.50
2019-06-01T12:52:31.645Z,3.67
2019-06-01T12:55:01.880Z,3.55
2019-06-01T12:57:32.121Z,4.03
2019-06-01T13:00:02.358Z,3.60
2019-06-01T13:02:33.947Z,3.47
2019-06-01T13:05:09.092Z,3.42
2019-06-01T13:10:11.307Z,3.90
2019-06-01T13:12:41.502Z,3.85
2019-06-01T13:15:14.427Z,3.60
2019-06-01T13:17:47.305Z,3.70
2019-06-01T13:20:18.452Z,2.15
2019-06-01T13:22:51.742Z,1.82
2019-06-01T13:25:23.478Z,1.50
2019-06-01T13:27:53.699Z,2.12
2019-06-01T13:30:23.936Z,2.00
2019-06-01T13:32:54.167Z,2.30
2019-06-01T13:35:24.425Z,2.98
2019-06-01T13:38:10.904Z,2.98
2019-06-01T13:40:27.320Z,2.77
2019-06-01T13:42:57.931Z,3.22
2019-06-01T13:45:28.591Z,2.67
2019-06-01T13:47:58.889Z,3.15
2019-06-01T13:50:29.115Z,4.95
2019-06-01T13:52:59.356Z,3.50
2019-06-01T13:55:29.578Z,2.85
2019-06-01T13:58:01.340Z,3.10
2019-06-01T14:00:31.602Z,2.90
2019-06-01T14:03:01.949Z,2.80
2019-06-01T14:05:32.338Z,2.50
2019-06-01T14:08:02.627Z,2.50
2019-06-01T14:10:32.813Z,2.95
2019-06-01T14:13:05.419Z,3.30
2019-06-01T14:15:35.017Z,3.00
2019-06-01T14:18:05.850Z,3.52
2019-06-01T14:20:36.405Z,3.20
2019-06-01T14:23:07.497Z,3.10
2019-06-01T14:25:37.790Z,3.15
2019-06-01T14:28:08.022Z,3.52
2019-06-01T14:30:38.272Z,2.92
2019-06-01T14:33:08.488Z,3.40
2019-06-01T14:35:38.723Z,2.85
2019-06-01T14:38:08.974Z,3.00
2019-06-01T14:40:41.447Z,2.58
2019-06-01T14:43:11.213Z,2.50
2019-06-01T14:45:41.502Z,2.80
2019-06-01T14:48:12.220Z,3.62
2019-06-01T14:50:44.171Z,2.92
2019-06-01T14:53:14.792Z,3.17
2019-06-01T14:55:45.533Z,3.65
2019-06-01T14:58:17.349Z,3.10
2019-06-01T15:00:50.147Z,2.72
2019-06-01T15:03:20.482Z,3.08
2019-06-01T15:05:50.778Z,3.67
2019-06-01T15:08:20.999Z,3.80
2019-06-01T15:10:53.271Z,3.85
2019-06-01T15:13:23.646Z,3.92
2019-06-01T15:15:53.974Z,4.25
2019-06-01T15:18:24.417Z,4.25
2019-06-01T15:20:55.883Z,3.62
2019-06-01T15:23:26.772Z,3.02
2019-06-01T15:25:58.519Z,3.20
2019-06-01T15:28:28.881Z,4.20
2019-06-01T15:30:59.517Z,4.30
2019-06-01T15:33:29.867Z,3.70
2019-06-01T15:36:01.760Z,3.50
2019-06-01T15:38:32.266Z,3.83
2019-06-01T15:41:02.552Z,3.80
2019-06-01T15:43:33.084Z,3.52
2019-06-01T15:46:03.404Z,3.20
2019-06-01T15:48:33.630Z,2.60
2019-06-01T15:51:07.134Z,2.77
2019-06-01T15:53:36.203Z,3.08
2019-06-01T15:56:06.501Z,3.08
2019-06-01T15:58:51.781Z,3.00
2019-06-01T16:01:08.772Z,2.98
2019-06-01T16:03:38.984Z,4.03
2019-06-01T16:06:09.218Z,3.90
2019-06-01T16:08:41.061Z,3.80
2019-06-01T16:11:11.324Z,3.83
2019-06-01T16:13:41.732Z,3.37
2019-06-01T16:16:12.051Z,3.45
2019-06-01T16:18:42.259Z,3.40
2019-06-01T16:21:13.836Z,3.58
2019-06-01T16:23:49.927Z,3.70
2019-06-01T16:26:16.875Z,3.67
2019-06-01T16:28:47.175Z,4.20
2019-06-01T16:31:17.432Z,3.40
2019-06-01T16:33:47.662Z,3.52
2019-06-01T16:36:18.225Z,3.52
2019-06-01T16:38:48.869Z,3.40
2019-06-01T16:41:19.408Z,3.35
2019-06-01T16:43:51.180Z,4.22
2019-06-01T16:46:23.564Z,4.12
2019-06-01T16:48:53.866Z,3.50
2019-06-01T16:51:24.119Z,3.67
2019-06-01T16:53:55.671Z,3.33
2019-06-01T16:56:26.434Z,4.50
2019-06-01T16:58:58.080Z,4.50
2019-06-01T17:01:28.588Z,3.62
2019-06-01T17:04:02.659Z,3.50
2019-06-01T17:09:05.252Z,3.95
2019-06-01T17:11:36.095Z,4.10
2019-06-01T17:14:08.376Z,3.70
2019-06-01T17:16:39.024Z,3.30
2019-06-01T17:19:09.949Z,4.00
2019-06-01T17:21:40.376Z,4.33
2019-06-01T17:24:11.226Z,4.22
2019-06-01T17:26:41.897Z,4.15
2019-06-01T17:29:12.583Z,8.23
2019-06-01T17:31:53.841Z,5.05
2019-06-01T17:34:14.892Z,4.25
2019-06-01T17:36:45.146Z,4.37
2019-06-01T17:39:15.359Z,4.60
2019-06-01T17:41:46.113Z,4.35
2019-06-01T17:44:16.773Z,5.08
2019-06-01T17:46:53.307Z,4.08
2019-06-01T17:49:19.545Z,4.50
2019-06-01T17:51:49.787Z,4.47
2019-06-01T17:54:22.583Z,4.92
2019-06-01T17:56:52.891Z,4.60
2019-06-01T17:59:23.237Z,4.25
2019-06-01T18:01:53.520Z,4.03
2019-06-01T18:04:23.836Z,4.20
2019-06-01T18:06:54.072Z,4.45
2019-06-01T18:09:24.325Z,4.67
2019-06-01T18:11:54.725Z,4.58
2019-06-01T18:14:25.432Z,4.47
2019-06-01T18:16:57.294Z,4.85
2019-06-01T18:19:27.526Z,4.80
2019-06-01T18:21:57.775Z,5.50
2019-06-01T18:24:28.439Z,5.30
2019-06-01T18:26:58.830Z,6.65
2019-06-01T18:29:32.269Z,5.25
2019-06-01T18:32:03.032Z,5.22
2019-06-01T18:34:34.807Z,5.40
2019-06-01T18:37:05.773Z,6.15
2019-06-01T18:39:36.486Z,6.00
2019-06-01T18:42:06.806Z,6.15
2019-06-01T18:44:37.459Z,6.80
2019-06-01T18:47:07.897Z,7.53
2019-06-01T18:49:39.659Z,5.80
2019-06-01T18:52:10.649Z,5.50
2019-06-01T18:54:41.619Z,6.25
2019-06-01T18:57:20.490Z,6.47
2019-06-01T18:59:45.019Z,5.85
2019-06-01T19:02:16.319Z,6.62
2019-06-01T19:04:46.900Z,6.03
2019-06-01T19:07:18.477Z,5.97
2019-06-01T19:09:49.857Z,5.28
2019-06-01T19:12:20.093Z,5.80
2019-06-01T19:14:50.889Z,6.03
2019-06-01T19:17:21.541Z,6.05
2019-06-01T19:19:51.858Z,5.67
2019-06-01T19:22:22.080Z,6.40
2019-06-01T19:24:52.385Z,6.40
2019-06-01T19:27:22.672Z,9.50
2019-06-01T19:29:52.994Z,7.42
2019-06-01T19:32:23.575Z,8.28
2019-06-01T19:34:54.324Z,9.33
2019-06-01T19:37:25.527Z,8.33
2019-06-01T19:39:56.995Z,8.38
2019-06-01T19:42:27.360Z,8.35
2019-06-01T19:44:58.069Z,8.43
2019-06-01T19:47:28.374Z,8.18
2019-06-01T19:49:58.968Z,9.15
2019-06-01T19:52:30.014Z,8.95
2019-06-01T19:55:00.337Z,8.93
2019-06-01T19:57:30.585Z,13.45
2019-06-01T20:00:00.811Z,17.23
2019-06-01T20:02:34.071Z,13.85
2019-06-01T20:05:03.934Z,13.72
2019-06-01T20:07:34.256Z,15.03
2019-06-01T20:10:06.692Z,16.85
2019-06-01T20:12:36.992Z,16.27
2019-06-01T20:15:08.467Z,17.87
2019-06-01T20:17:38.800Z,19.25
2019-06-01T20:20:10.638Z,18.02
2019-06-01T20:22:41.530Z,18.92
2019-06-01T20:25:13.262Z,20.95
2019-06-01T20:27:43.539Z,25.23
2019-06-01T20:30:15.771Z,28.12
2019-06-01T20:32:46.261Z,26.23
2019-06-01T20:35:18.033Z,26.87
2019-06-01T20:37:49.005Z,28.35
2019-06-01T20:40:20.355Z,28.12
2019-06-01T20:42:51.142Z,28.50
2019-06-01T20:45:22.782Z,27.93
2019-06-01T20:47:53.424Z,26.80
2019-06-01T20:50:24.060Z,26.40
2019-06-01T20:52:54.399Z,24.50
2019-06-01T20:55:24.845Z,21.73
2019-06-01T20:57:55.100Z,20.30
2019-06-01T21:00:25.325Z,20.17
2019-06-01T21:02:54.577Z,20.37
2019-06-01T21:05:24.600Z,20.45
2019-06-01T21:07:57.392Z,19.85
2019-06-01T21:10:27.219Z,19.57
2019-06-01T21:12:57.872Z,18.27
2019-06-01T21:15:28.172Z,17.82
2019-06-01T21:17:58.792Z,16.42
2019-06-01T21:20:30.093Z,16.60
2019-06-01T21:23:00.870Z,15.32
2019-06-01T21:25:31.218Z,14.68
2019-06-01T21:28:01.824Z,14.38
2019-06-01T21:30:32.146Z,14.47
2019-06-01T21:33:02.379Z,15.28
2019-06-01T21:35:32.620Z,14.98
2019-06-01T21:38:04.133Z,14.70
2019-06-01T21:40:34.719Z,15.05
2019-06-01T21:43:23.140Z,14.83
2019-06-01T21:45:36.949Z,14.70
2019-06-01T21:48:07.570Z,16.12
2019-06-01T21:50:37.868Z,14.10
2019-06-01T21:53:08.126Z,14.75
2019-06-01T21:55:38.330Z,14.25
2019-06-01T21:58:08.625Z,14.05
2019-06-01T22:00:39.202Z,15.23
2019-06-01T22:03:11.208Z,16.15
2019-06-01T22:05:41.433Z,16.12
2019-06-01T22:08:11.688Z,16.25
2019-06-01T22:10:42.281Z,17.32
2019-06-01T22:13:18.626Z,17.57
2019-06-01T22:15:44.542Z,16.85
2019-06-01T22:18:14.821Z,17.00
2019-06-01T22:20:45.072Z,17.42
2019-06-01T22:23:15.329Z,16.52
2019-06-01T22:25:45.608Z,16.30
2019-06-01T22:28:15.829Z,17.05
2019-06-01T22:30:46.119Z,22.22
2019-06-01T22:33:16.412Z,18.17
2019-06-01T22:35:46.680Z,19.82
2019-06-01T22:38:16.940Z,18.98
2019-06-01T22:40:47.604Z,17.05
2019-06-01T22:43:32.899Z,17.50
2019-06-01T22:45:50.445Z,16.93
2019-06-01T22:48:20.667Z,17.05
2019-06-01T22:50:50.978Z,17.77
2019-06-01T22:53:22.003Z,17.42
2019-06-01T22:55:52.981Z,17.30
2019-06-01T22:58:23.660Z,18.75
2019-06-01T23:00:53.976Z,18.52
2019-06-01T23:03:24.240Z,21.05
2019-06-01T23:05:54.453Z,22.27
2019-06-01T23:08:25.691Z,19.27
2019-06-01T23:10:55.975Z,18.37
2019-06-01T23:13:26.287Z,21.60
2019-06-01T23:15:56.464Z,23.07
2019-06-01T23:18:27.962Z,23.18
2019-06-01T23:20:58.788Z,22.48
2019-06-01T23:23:30.155Z,21.00
2019-06-01T23:26:01.020Z,22.55
2019-06-01T23:28:32.444Z,25.00
2019-06-01T23:31:03.692Z,22.42
2019-06-01T23:33:34.010Z,23.35
2019-06-01T23:36:04.591Z,21.52
2019-06-01T23:38:34.931Z,20.85
2019-06-01T23:41:05.410Z,20.77
2019-06-01T23:43:35.637Z,20.15
2019-06-01T23:46:05.855Z,19.82
2019-06-01T23:48:36.114Z,20.65
2019-06-01T23:51:06.335Z,19.85
2019-06-01T23:53:36.623Z,21.37
2019-06-01T23:56:06.853Z,22.65
2019-06-01T23:58:37.176Z,20.12
